LKTB/BRQ METAR and TAF weather

Enter ICAO airport designator
Station Type Date Time Source
LKTB METAR 2021/07/29 02:00 UTC NOAA

LKTB 290200Z 27006KT CAVOK 17/14 Q1015 NOSIG


Station Type Date Time Source
LKTB Decoded METAR 2021/07/29 02:00 UTC NOAA

Brno / Turany, Czech Republic (LKTB) 49-09N 016-42E 246M
Jul 28, 2021 - 10:00 PM EDT / 2021.07.29 0200 UTC
Wind: from the W (270 degrees) at 7 MPH (6 KT):0
Visibility: greater than 7 mile(s):0
Temperature: 62 F (17 C)
Dew Point: 57 F (14 C)
Relative Humidity: 82%
Pressure (altimeter): 29.97 in. Hg (1015 hPa)
ob: LKTB 290200Z 27006KT CAVOK 17/14 Q1015 NOSIG
cycle: 2

Station Type Date Time Source
LKTB TAF 2021/07/28 18:05 UTC NOAA

TAF LKTB 281700Z 2818/3000 28006KT CAVOK
TEMPO 2818/2900 33014KT 6000 SHRA SCT035CB BKN045 PROB30
TEMPO 2818/2823 2000 TSRAGR BKN014CB
TEMPO 2900/2906 4000 MIFG SCT004
BECMG 2908/2910 20006KT
TEMPO 2910/2918 23014KT

Example: see airport list